Ana Sayfa
METAR-TAF:

METAR-TAF

Havaalanları :

Shelby, Kuzey Carolina, Amerika Birleşik Devletleri

Enlem: 35-15N, Boylam: 081-36W, yükseklik: 258 m

Güncel hava durumu gözlemi

Rapor saat 15:15 UTC de 17 dakika önce yapıldı.
Rüzgar batı/güneybatıdan 6 kt
Sıcaklık 27°C
Nem 79%
Basınç 1019 hPa
Görüş mesafesi: 16.1 km
1600 ft yükseklikte parçalı bulutlu

METAR: KEHO 211515Z AUTO 24006KT 10SM SCT016 27/23 A3010 RMK AO2 T02690231

Saat: 11:32 (15:32 UTC)


TAF: eksik

4.000'den fazla havaalanı için hava durumu gözlemleri ve tahminleri (METAR ve TAF raporları).

Kullanılabilir istasyonlar harita üzerinde sarı ve kırmızı noktalarla gösterilir.

İstasyonun adını görmek için fareyi noktanın üzerinde gezdirin.

Sonrasında hava gözlem ve tahminlerini görmek için tıklayın.

Haritayı değiştirmek için: yaklaştırmak için siyah artı işaretli yeşil düğmeye ve uzaklaştırmak için de eksi işaretli düğmeye hızla tıklayın; bitişik haritalar için yeşil okları kullanın.


METAR-TAF: